Time;durP1;ratioP1;P1;durP2;ratioP2;P2;SDS_P1;SDS_P2;PMS_P1;PMS_P2;Temp;Humidity;BMP_temperature;BMP_pressure;BME280_temperature;BME280_humidity;BME280_pressure;Samples;Min_cycle;Max_cycle;Signal;HPM_P1;HPM_P2
2023/06/25 00:00:11;;;;;;;33.67;26.33;;;;;;;18.38;100.00;101915.25;5025841;28;20037;-54
2023/06/25 00:02:36;;;;;;;32.80;25.40;;;;;;;18.64;100.00;101959.34;5032333;28;20029;-54
2023/06/25 00:05:02;;;;;;;35.53;25.67;;;;;;;18.47;100.00;101934.34;5030564;28;20465;-47
2023/06/25 00:07:27;;;;;;;30.80;25.83;;;;;;;18.46;100.00;101927.28;5014645;28;20239;-54
2023/06/25 00:09:56;;;;;;;31.10;25.60;;;;;;;18.42;100.00;101925.69;5032590;28;20041;-48
2023/06/25 00:12:22;;;;;;;29.60;24.90;;;;;;;18.33;100.00;101907.44;5015074;28;20029;-50
2023/06/25 00:14:48;;;;;;;32.38;25.05;;;;;;;18.15;100.00;101879.03;5032666;28;20476;-50
2023/06/25 00:17:17;;;;;;;29.20;24.25;;;;;;;18.45;100.00;101933.53;5031582;28;20075;-50
2023/06/25 00:19:45;;;;;;;28.05;22.92;;;;;;;18.03;100.00;101855.63;5031458;28;20041;-51
2023/06/25 00:22:11;;;;;;;30.23;24.95;;;;;;;18.37;100.00;101911.72;5031449;28;20041;-49
2023/06/25 00:24:37;;;;;;;30.85;24.85;;;;;;;18.06;100.00;101862.63;5032525;28;20041;-51
2023/06/25 00:27:03;;;;;;;31.90;24.73;;;;;;;17.96;100.00;101848.84;5032772;28;20029;-49
2023/06/25 00:29:28;;;;;;;29.20;23.23;;;;;;;18.33;100.00;101906.63;5032675;28;20219;-49
2023/06/25 00:31:53;;;;;;;28.55;23.33;;;;;;;18.01;100.00;101849.50;5032305;28;20469;-57
2023/06/25 00:34:19;;;;;;;29.60;24.38;;;;;;;18.41;100.00;101918.63;5032448;28;20120;-54
2023/06/25 00:36:45;;;;;;;30.95;24.02;;;;;;;18.40;100.00;101916.03;5032358;28;20555;-54
2023/06/25 00:39:11;;;;;;;26.15;22.30;;;;;;;18.29;100.00;101891.69;5032267;28;20129;-54
2023/06/25 00:41:39;;;;;;;31.00;23.45;;;;;;;18.31;100.00;101903.13;5031231;28;20184;-54
2023/06/25 00:44:06;;;;;;;25.88;22.85;;;;;;;17.90;100.00;101835.81;5032255;28;20155;-50
2023/06/25 00:46:31;;;;;;;27.27;22.40;;;;;;;18.28;100.00;101895.28;5014887;28;20065;-50
2023/06/25 00:48:57;;;;;;;27.90;22.73;;;;;;;17.91;100.00;101827.78;5014555;28;20107;-49
2023/06/25 00:51:27;;;;;;;26.42;22.20;;;;;;;18.30;100.00;101896.09;5032146;28;20041;-50
2023/06/25 00:53:52;;;;;;;27.90;21.55;;;;;;;17.82;100.00;101816.69;5014520;28;20037;-48
2023/06/25 00:56:28;;;;;;;26.05;21.20;;;;;;;18.27;100.00;101891.75;5032279;28;20037;-52
2023/06/25 00:59:00;;;;;;;27.50;21.98;;;;;;;17.95;100.00;101840.00;5031355;28;20040;-53
2023/06/25 01:01:48;;;;;;;28.60;21.85;;;;;;;18.17;100.00;101876.28;5032208;28;20042;-50
2023/06/25 01:04:25;;;;;;;25.60;21.27;;;;;;;17.72;100.00;101800.25;5031490;28;20048;-50
2023/06/25 01:06:53;;;;;;;23.33;19.67;;;;;;;17.73;100.00;101809.97;5014651;28;20134;-48
2023/06/25 01:09:18;;;;;;;25.98;20.35;;;;;;;17.86;100.00;101832.44;5014091;28;20539;-51
2023/06/25 01:12:07;;;;;;;24.42;21.55;;;;;;;18.15;100.00;101868.38;5031023;28;20033;-53
2023/06/25 01:14:33;;;;;;;25.98;20.95;;;;;;;18.14;100.00;101884.41;5020566;28;20046;-50
2023/06/25 01:16:59;;;;;;;27.13;21.20;;;;;;;18.08;100.00;101863.41;5033523;28;20095;-49
2023/06/25 01:19:29;;;;;;;25.42;20.92;;;;;;;18.01;100.00;101846.81;5034532;28;20033;-50
2023/06/25 01:21:59;;;;;;;25.67;20.67;;;;;;;18.10;100.00;101859.72;5017744;28;20461;-47
2023/06/25 01:24:26;;;;;;;25.60;20.97;;;;;;;18.08;100.00;101864.25;5034412;28;20033;-52
2023/06/25 01:26:54;;;;;;;24.58;20.15;;;;;;;17.64;100.00;101780.25;5017682;28;20029;-49
2023/06/25 01:29:20;;;;;;;26.25;20.83;;;;;;;17.95;100.00;101847.97;5001641;28;20029;-51
2023/06/25 01:31:46;;;;;;;25.10;21.45;;;;;;;17.37;100.00;101748.63;5035014;28;20117;-53
2023/06/25 01:34:12;;;;;;;24.63;21.27;;;;;;;18.04;100.00;101852.00;5018045;28;20565;-52
2023/06/25 01:36:40;;;;;;;26.73;21.60;;;;;;;18.06;100.00;101851.97;5017638;28;20041;-52
2023/06/25 01:39:06;;;;;;;23.30;20.65;;;;;;;17.26;100.00;101710.13;5035648;28;20064;-53
2023/06/25 01:41:32;;;;;;;29.48;22.05;;;;;;;18.01;100.00;101838.84;5035490;28;20041;-50
2023/06/25 01:43:58;;;;;;;23.98;20.80;;;;;;;17.95;100.00;101839.13;5035559;28;20906;-53
2023/06/25 01:46:23;;;;;;;23.27;20.30;;;;;;;17.93;100.00;101830.34;5035340;28;20041;-54
2023/06/25 01:48:48;;;;;;;25.75;19.48;;;;;;;17.59;100.00;101769.84;5034232;28;20073;-57
2023/06/25 01:51:14;;;;;;;24.00;20.15;;;;;;;17.92;100.00;101840.13;5035388;28;20607;-52
2023/06/25 01:53:39;;;;;;;24.40;20.63;;;;;;;17.90;100.00;101822.50;5017476;28;20537;-50
2023/06/25 01:56:04;;;;;;;24.67;19.90;;;;;;;17.45;100.00;101761.59;5034957;28;20084;-54
2023/06/25 01:58:30;;;;;;;22.35;19.85;;;;;;;17.89;100.00;101816.31;5017532;28;20045;-50
2023/06/25 02:00:55;;;;;;;24.23;21.10;;;;;;;17.89;100.00;101815.47;5035529;28;20047;-52
2023/06/25 02:03:20;;;;;;;21.65;19.23;;;;;;;17.89;100.00;101815.47;5035088;28;20038;-52
2023/06/25 02:05:46;;;;;;;23.83;19.00;;;;;;;17.88;100.00;101819.91;5033990;28;20124;-50
2023/06/25 02:08:11;;;;;;;24.38;19.85;;;;;;;17.48;100.00;101747.28;5017256;28;20041;-49
2023/06/25 02:10:36;;;;;;;25.98;20.50;;;;;;;17.89;100.00;101812.81;5034929;28;20091;-48
2023/06/25 02:13:01;;;;;;;22.17;19.55;;;;;;;17.74;100.00;101789.56;5034954;28;20041;-49
2023/06/25 02:15:27;;;;;;;26.15;19.58;;;;;;;17.49;100.00;101739.19;5035204;28;20515;-50
2023/06/25 02:17:52;;;;;;;25.85;20.60;;;;;;;17.88;100.00;101803.06;5017344;28;20112;-58
2023/06/25 02:20:19;;;;;;;26.67;20.73;;;;;;;17.87;100.00;101804.88;5034980;28;20041;-48
2023/06/25 02:22:45;;;;;;;28.95;21.50;;;;;;;17.44;100.00;101710.16;5033507;28;20132;-48
2023/06/25 02:25:10;;;;;;;23.80;19.42;;;;;;;17.48;100.00;101724.19;5016953;28;20032;-54
2023/06/25 02:27:36;;;;;;;25.55;21.10;;;;;;;17.54;100.00;101734.56;5034135;28;20064;-53
2023/06/25 02:30:01;;;;;;;27.05;21.70;;;;;;;17.83;100.00;101795.28;5016649;28;20029;-54
2023/06/25 02:32:26;;;;;;;26.13;19.55;;;;;;;17.42;100.00;101727.97;5034730;28;20060;-56
2023/06/25 02:34:52;;;;;;;24.25;21.10;;;;;;;17.33;100.00;101709.78;5034823;28;20048;-55
2023/06/25 02:37:17;;;;;;;27.58;21.52;;;;;;;17.45;100.00;101732.31;5034268;28;20045;-54
2023/06/25 02:39:42;;;;;;;23.92;19.98;;;;;;;17.40;100.00;101723.66;5033287;28;20183;-53
2023/06/25 02:42:08;;;;;;;24.45;20.25;;;;;;;17.69;100.00;101771.09;5034415;28;20139;-48
2023/06/25 02:44:34;;;;;;;26.38;21.40;;;;;;;17.64;100.00;101772.25;5000534;28;20392;-51
2023/06/25 02:46:59;;;;;;;27.08;22.17;;;;;;;17.54;100.00;101757.63;5034297;28;20048;-52
2023/06/25 02:49:24;;;;;;;27.48;22.00;;;;;;;17.62;100.00;101776.81;5016583;28;20041;-55
2023/06/25 02:51:50;;;;;;;30.13;21.98;;;;;;;17.55;100.00;101762.91;5034155;28;20073;-51
2023/06/25 02:54:15;;;;;;;29.50;24.02;;;;;;;17.47;100.00;101749.06;5033239;28;20037;-52
2023/06/25 02:56:41;;;;;;;28.30;23.83;;;;;;;17.59;100.00;101779.59;5016630;28;20029;-49
2023/06/25 02:59:06;;;;;;;30.52;23.85;;;;;;;17.61;100.00;101785.72;5016332;28;20069;-53
2023/06/25 03:01:31;;;;;;;27.52;23.08;;;;;;;17.19;100.00;101711.38;5016354;28;20083;-49
2023/06/25 03:03:56;;;;;;;31.58;23.38;;;;;;;17.57;100.00;101774.34;5016457;28;20083;-53
2023/06/25 03:06:22;;;;;;;28.05;23.55;;;;;;;17.54;100.00;101777.16;5033574;28;20087;-47
2023/06/25 03:08:47;;;;;;;27.55;22.35;;;;;;;17.51;100.00;101771.09;5032930;28;20072;-52
2023/06/25 03:11:14;;;;;;;27.33;22.23;;;;;;;17.16;100.00;101711.50;5032647;28;20048;-53
2023/06/25 03:13:39;;;;;;;26.10;23.17;;;;;;;17.00;100.00;101695.38;5033895;28;20045;-48
2023/06/25 03:16:05;;;;;;;27.02;23.20;;;;;;;17.41;100.00;101774.16;5033820;28;20026;-55
2023/06/25 03:18:30;;;;;;;27.63;23.00;;;;;;;17.03;100.00;101697.91;5016384;28;20128;-51
2023/06/25 03:20:55;;;;;;;28.77;22.70;;;;;;;17.42;100.00;101769.72;5016062;28;20491;-54
2023/06/25 03:23:20;;;;;;;27.27;22.25;;;;;;;17.43;100.00;101756.31;5033742;28;20112;-52
2023/06/25 03:25:46;;;;;;;29.00;22.08;;;;;;;17.31;100.00;101743.56;5014943;28;20121;-49
2023/06/25 03:28:11;;;;;;;32.05;24.13;;;;;;;17.36;100.00;101770.00;5033543;28;20069;-52
2023/06/25 03:30:36;;;;;;;29.50;22.25;;;;;;;16.98;100.00;101693.72;5013818;28;20265;-54
2023/06/25 03:33:02;;;;;;;28.63;22.45;;;;;;;16.96;100.00;101700.91;4999012;28;20029;-50
2023/06/25 03:35:27;;;;;;;26.15;22.30;;;;;;;16.92;100.00;101699.31;5033480;28;20034;-51
2023/06/25 03:37:52;;;;;;;27.50;22.58;;;;;;;17.35;100.00;101753.16;5012432;28;20057;-50
2023/06/25 03:40:18;;;;;;;26.02;21.45;;;;;;;17.37;100.00;101771.69;5012806;28;20077;-54
2023/06/25 03:42:43;;;;;;;28.00;23.23;;;;;;;17.34;100.00;101753.22;5013374;28;20038;-48
2023/06/25 03:45:09;;;;;;;26.95;22.48;;;;;;;17.33;100.00;101751.50;5013755;28;20428;-48
2023/06/25 03:47:34;;;;;;;26.70;20.92;;;;;;;17.31;100.00;101753.34;5013594;28;20424;-48
2023/06/25 03:50:00;;;;;;;30.33;24.02;;;;;;;16.96;100.00;101684.97;5012258;28;20436;-47
2023/06/25 03:52:25;;;;;;;28.83;21.60;;;;;;;16.95;100.00;101681.44;5013435;28;20469;-50
2023/06/25 03:54:50;;;;;;;26.55;22.20;;;;;;;16.99;100.00;101692.78;5013304;28;20037;-50
2023/06/25 03:57:15;;;;;;;28.23;21.42;;;;;;;17.32;100.00;101753.28;5013269;28;20034;-52
2023/06/25 03:59:41;;;;;;;27.90;23.17;;;;;;;16.98;100.00;101685.75;5013325;28;20081;-49
2023/06/25 04:02:07;;;;;;;27.40;22.33;;;;;;;17.39;100.00;101748.56;5012044;28;20034;-52
2023/06/25 04:04:32;;;;;;;29.00;22.67;;;;;;;17.40;100.00;101743.16;5012166;28;20046;-51
2023/06/25 04:06:58;;;;;;;25.90;22.02;;;;;;;17.42;100.00;101745.75;5013249;28;20509;-57
2023/06/25 04:09:23;;;;;;;27.20;21.77;;;;;;;17.11;100.00;101687.75;5013142;28;20040;-48
2023/06/25 04:11:48;;;;;;;26.75;21.40;;;;;;;17.25;100.00;101730.56;5013390;28;20037;-50
2023/06/25 04:14:14;;;;;;;27.75;21.58;;;;;;;17.32;100.00;101726.69;5011948;28;20374;-52
2023/06/25 04:16:39;;;;;;;28.38;22.10;;;;;;;17.37;100.00;101743.28;5013041;28;20041;-51
2023/06/25 04:19:04;;;;;;;28.92;22.35;;;;;;;17.38;100.00;101739.72;5011838;28;20040;-53
2023/06/25 04:21:30;;;;;;;24.75;20.75;;;;;;;17.00;100.00;101679.41;5012880;28;20080;-51
2023/06/25 04:23:55;;;;;;;27.65;21.55;;;;;;;17.38;100.00;101747.69;5013155;28;20080;-51
2023/06/25 04:26:20;;;;;;;30.50;22.70;;;;;;;17.43;100.00;101753.66;5012476;28;20038;-51
2023/06/25 04:28:45;;;;;;;27.33;21.92;;;;;;;17.46;100.00;101755.31;5011854;28;20044;-48
2023/06/25 04:31:11;;;;;;;29.27;22.83;;;;;;;17.12;100.00;101684.16;5011787;28;20069;-48
2023/06/25 04:33:41;;;;;;;29.90;22.30;;;;;;;17.34;100.00;101719.47;5028103;28;20026;-49
2023/06/25 04:36:07;;;;;;;25.17;21.05;;;;;;;17.51;100.00;101745.34;5011322;28;20064;-52
2023/06/25 04:38:33;;;;;;;27.52;22.63;;;;;;;17.56;100.00;101747.81;5010575;28;20045;-52
2023/06/25 04:40:58;;;;;;;27.70;21.83;;;;;;;17.16;100.00;101668.94;5012301;28;20034;-52
2023/06/25 04:43:24;;;;;;;28.35;20.98;;;;;;;17.61;100.00;101745.78;5011349;28;20413;-49
2023/06/25 04:45:49;;;;;;;27.98;23.10;;;;;;;17.27;100.00;101691.44;5012627;28;20030;-50
2023/06/25 04:48:14;;;;;;;29.50;21.13;;;;;;;17.33;100.00;101696.50;5012574;28;20112;-55
2023/06/25 04:50:40;;;;;;;27.00;21.63;;;;;;;17.31;100.00;101682.38;5012575;28;20493;-49
2023/06/25 04:53:05;;;;;;;24.45;19.73;;;;;;;17.29;100.00;101678.94;5011283;28;20388;-52
2023/06/25 04:55:30;;;;;;;25.02;21.17;;;;;;;17.73;100.00;101735.41;5011132;28;20030;-52
2023/06/25 04:57:56;;;;;;;25.65;21.67;;;;;;;17.78;100.00;101748.50;5012408;28;20029;-54
2023/06/25 05:00:21;;;;;;;23.67;20.05;;;;;;;17.39;100.00;101663.41;5012611;28;20041;-49
2023/06/25 05:02:46;;;;;;;26.65;21.13;;;;;;;17.67;100.00;101710.88;5012370;28;20060;-49
2023/06/25 05:05:12;;;;;;;26.40;20.38;;;;;;;17.87;100.00;101726.75;5011055;28;20509;-52
2023/06/25 05:07:37;;;;;;;24.20;19.67;;;;;;;17.62;100.00;101687.16;5011438;28;20038;-55
2023/06/25 05:10:03;;;;;;;26.50;20.05;;;;;;;17.62;100.00;101680.97;5012123;28;20052;-58
2023/06/25 05:12:28;;;;;;;25.10;20.52;;;;;;;18.04;100.00;101748.09;5012515;28;20400;-55
2023/06/25 05:14:53;;;;;;;24.42;19.27;;;;;;;18.13;100.00;101736.13;5012369;28;20044;-54
2023/06/25 05:17:19;;;;;;;22.35;19.23;;;;;;;17.78;100.00;101663.28;5011188;28;20484;-50
2023/06/25 05:19:45;;;;;;;22.13;18.65;;;;;;;18.23;100.00;101722.28;5012118;28;20042;-55
2023/06/25 05:22:10;;;;;;;23.75;19.00;;;;;;;18.01;100.00;101665.66;5010879;28;20070;-56
2023/06/25 05:24:35;;;;;;;22.85;18.95;;;;;;;18.54;100.00;101733.16;5009974;28;20056;-56
2023/06/25 05:27:01;;;;;;;23.10;19.50;;;;;;;18.74;100.00;101745.44;5012479;28;20527;-55
2023/06/25 05:29:26;;;;;;;19.95;17.80;;;;;;;18.56;100.00;101669.09;5012334;28;20528;-50
2023/06/25 05:31:53;;;;;;;19.63;17.55;;;;;;;18.75;100.00;101664.50;5011096;28;20038;-50
2023/06/25 05:34:18;;;;;;;21.20;16.58;;;;;;;19.13;100.00;101705.13;5012178;28;20437;-52
2023/06/25 05:36:44;;;;;;;18.13;15.80;;;;;;;19.42;100.00;101704.44;5013143;28;20049;-50
2023/06/25 05:39:09;;;;;;;18.50;16.60;;;;;;;19.40;100.00;101670.75;5013931;28;20060;-52
2023/06/25 05:41:39;;;;;;;16.45;14.75;;;;;;;19.95;100.00;101751.31;5030693;28;20566;-53
2023/06/25 05:44:05;;;;;;;19.50;14.98;;;;;;;20.03;100.00;101733.03;5014407;28;20038;-52
2023/06/25 05:46:30;;;;;;;17.92;14.43;;;;;;;19.84;100.00;101669.09;5014219;28;20038;-51
2023/06/25 05:48:55;;;;;;;18.77;14.90;;;;;;;20.49;100.00;101766.00;5031840;28;20033;-50
2023/06/25 05:51:21;;;;;;;16.73;15.00;;;;;;;20.58;100.00;101752.94;5031726;28;20095;-51
2023/06/25 05:53:46;;;;;;;17.52;15.02;;;;;;;20.69;100.00;101746.97;5031715;28;20473;-52
2023/06/25 05:56:11;;;;;;;16.27;13.88;;;;;;;20.76;100.00;101733.13;5014005;28;20052;-50
2023/06/25 05:58:37;;;;;;;15.95;14.25;;;;;;;21.06;100.00;101756.28;5030317;28;20091;-54
2023/06/25 06:01:05;;;;;;;14.65;13.13;;;;;;;21.24;100.00;101784.63;5031872;28;20041;-52
2023/06/25 06:03:31;;;;;;;15.63;14.02;;;;;;;21.27;100.00;101760.34;5015753;28;20030;-55
2023/06/25 06:05:57;;;;;;;17.17;13.57;;;;;;;21.46;100.00;101776.97;5034607;28;20120;-50
2023/06/25 06:08:23;;;;;;;16.00;13.77;;;;;;;21.59;100.00;101772.59;5017023;28;20052;-54
2023/06/25 06:10:48;;;;;;;17.95;14.65;;;;;;;21.69;100.00;101773.69;5035378;28;20041;-55
2023/06/25 06:13:14;;;;;;;14.90;13.35;;;;;;;21.80;100.00;101779.22;5035130;28;20033;-54
2023/06/25 06:15:40;;;;;;;14.90;13.30;;;;;;;21.90;100.00;101767.94;5033962;28;20033;-53
2023/06/25 06:18:05;;;;;;;14.68;12.95;;;;;;;22.05;100.00;101780.34;5034943;28;20029;-49
2023/06/25 06:20:30;;;;;;;15.13;13.57;;;;;;;21.76;100.00;101709.84;5016974;28;20038;-54
2023/06/25 06:22:57;;;;;;;14.68;13.18;;;;;;;22.24;100.00;101780.88;5034660;28;20440;-53
2023/06/25 06:25:23;;;;;;;14.23;12.73;;;;;;;22.21;100.00;101759.63;5034843;28;20599;-55
2023/06/25 06:27:48;;;;;;;14.38;12.60;;;;;;;22.08;100.00;101723.84;5034873;28;20120;-48
2023/06/25 06:30:14;;;;;;;16.00;12.48;;;;;;;22.57;100.00;101769.69;5033656;28;20516;-57
2023/06/25 06:32:39;;;;;;;16.75;13.02;;;;;;;22.37;100.00;101707.53;5034684;28;20531;-49
2023/06/25 06:35:04;;;;;;;14.77;12.23;;;;;;;22.80;100.00;101769.88;5033518;28;20041;-56
2023/06/25 06:37:30;;;;;;;12.55;11.25;;;;;;;22.88;100.00;101764.00;5034307;28;20089;-53
2023/06/25 06:39:55;;;;;;;13.40;11.77;;;;;;;23.06;100.00;101770.75;5034588;28;20488;-49
2023/06/25 06:42:20;;;;;;;12.48;11.18;;;;;;;23.15;100.00;101767.44;5034607;28;20483;-57
2023/06/25 06:44:46;;;;;;;12.88;11.60;;;;;;;22.33;100.00;101597.84;5034491;28;20052;-52
2023/06/25 06:47:11;;;;;;;12.80;11.50;;;;;;;23.45;100.00;101770.69;5033413;28;20087;-52
2023/06/25 06:49:36;;;;;;;13.70;11.32;;;;;;;23.55;100.00;101768.22;5034298;28;20512;-54
2023/06/25 06:52:02;;;;;;;11.77;9.98;;;;;;;23.73;100.00;101780.28;5016404;28;20394;-54
2023/06/25 06:54:27;;;;;;;12.77;10.35;;;;;;;23.79;100.00;101766.41;5034533;28;20034;-50
2023/06/25 06:56:52;;;;;;;13.10;10.55;;;;;;;23.91;100.00;101748.50;5034169;28;20055;-50
2023/06/25 06:59:18;;;;;;;10.77;9.68;;;;;;;24.00;100.00;101754.06;5034054;28;20069;-50
2023/06/25 07:01:43;;;;;;;10.18;9.18;;;;;;;23.93;100.00;101707.09;5034118;28;20043;-51
2023/06/25 07:04:08;;;;;;;12.15;10.93;;;;;;;24.07;100.00;101711.47;5032969;28;20065;-54
2023/06/25 07:06:33;;;;;;;10.18;9.18;;;;;;;24.16;100.00;101718.00;5016620;28;20149;-54
2023/06/25 07:09:00;;;;;;;10.23;9.23;;;;;;;24.42;100.00;101750.03;5033913;28;20158;-53
2023/06/25 07:11:25;;;;;;;11.13;10.02;;;;;;;24.59;100.00;101765.75;5034429;28;20029;-54
2023/06/25 07:13:51;;;;;;;11.13;10.00;;;;;;;24.70;100.00;101770.31;5033062;28;20389;-58
2023/06/25 07:16:16;;;;;;;12.23;9.98;;;;;;;24.72;100.00;101756.75;5033556;28;20056;-56
2023/06/25 07:18:43;;;;;;;11.68;9.70;;;;;;;24.90;100.00;101752.66;5015978;28;20392;-49
2023/06/25 07:21:09;;;;;;;11.32;9.05;;;;;;;24.86;100.00;101733.19;5015143;28;20131;-57
2023/06/25 07:23:35;;;;;;;10.73;9.57;;;;;;;25.18;100.00;101760.31;4999498;28;20057;-56
2023/06/25 07:26:00;;;;;;;10.63;9.63;;;;;;;25.37;100.00;101768.63;5016109;28;20080;-53
2023/06/25 07:28:26;;;;;;;10.82;9.70;;;;;;;25.44;100.00;101777.94;5033540;28;20030;-56
2023/06/25 07:30:51;;;;;;;10.13;9.13;;;;;;;25.30;100.00;101729.69;5033671;28;20068;-55
2023/06/25 07:33:16;;;;;;;8.80;8.00;;;;;;;25.65;100.00;101770.00;5033486;28;20464;-54
2023/06/25 07:35:42;;;;;;;9.35;8.18;;;;;;;25.71;100.00;101756.88;5032398;28;20120;-53
2023/06/25 07:38:07;;;;;;;10.60;9.20;;;;;;;25.65;100.00;101719.66;5033558;28;20481;-50
2023/06/25 07:40:32;;;;;;;8.63;7.70;;;;;;;25.85;100.00;101711.75;5033495;28;20473;-55
2023/06/25 07:42:58;;;;;;;8.10;7.30;;;;;;;26.44;100.00;101761.63;5015807;28;20619;-49
2023/06/25 07:45:23;;;;;;;10.10;7.38;;;;;;;26.37;100.00;101719.91;5016089;28;20477;-54
2023/06/25 07:47:49;;;;;;;9.20;8.30;;;;;;;26.77;100.00;101734.41;5033591;28;20117;-51
2023/06/25 07:50:14;;;;;;;8.05;7.10;;;;;;;27.48;100.00;101777.81;5033192;28;20061;-51
2023/06/25 07:52:39;;;;;;;7.68;6.97;;;;;;;27.91;100.00;101775.69;5031814;28;20034;-55
2023/06/25 07:55:05;;;;;;;8.20;7.47;;;;;;;28.26;100.00;101758.97;5033144;28;20079;-55
2023/06/25 07:57:30;;;;;;;9.68;7.55;;;;;;;28.61;100.00;101734.88;5015344;28;20037;-52
2023/06/25 07:59:56;;;;;;;8.68;7.88;;;;;;;29.28;100.00;101796.25;5032886;28;20034;-54
2023/06/25 08:02:21;;;;;;;13.52;7.43;;;;;;;29.54;100.00;101733.06;5015025;28;20083;-51
2023/06/25 08:04:48;;;;;;;7.22;5.85;;;;;;;30.12;100.00;101782.44;5032976;28;20033;-53
2023/06/25 08:07:13;;;;;;;5.78;5.18;;;;;;;30.55;100.00;101783.59;5033161;28;20472;-49
2023/06/25 08:09:38;;;;;;;8.15;5.70;;;;;;;30.64;100.00;101782.66;5032076;28;20075;-49
2023/06/25 08:12:04;;;;;;;7.65;5.65;;;;;;;31.00;100.00;101784.31;5032631;28;20035;-48
2023/06/25 08:14:29;;;;;;;7.78;5.38;;;;;;;31.39;100.00;101792.06;5032714;28;20037;-54
2023/06/25 08:16:55;;;;;;;8.95;6.40;;;;;;;31.51;100.00;101785.34;5032632;28;20029;-54
2023/06/25 08:19:20;;;;;;;5.60;5.10;;;;;;;31.48;100.00;101786.53;5015054;28;20041;-55
2023/06/25 08:21:45;;;;;;;6.13;5.55;;;;;;;31.30;100.00;101784.84;5032378;28;20048;-56
2023/06/25 08:24:11;;;;;;;7.45;6.22;;;;;;;31.20;100.00;101777.66;5033061;28;20052;-53
2023/06/25 08:26:36;;;;;;;6.60;6.00;;;;;;;31.49;100.00;101771.94;5030501;28;20397;-50
2023/06/25 08:29:02;;;;;;;6.75;5.65;;;;;;;31.59;100.00;101771.78;5032571;28;20492;-50
2023/06/25 08:31:28;;;;;;;5.97;5.38;;;;;;;31.77;100.00;101769.81;5032476;28;20036;-50
2023/06/25 08:33:53;;;;;;;6.40;5.80;;;;;;;31.82;100.00;101777.47;5014726;28;20041;-54
2023/06/25 08:36:18;;;;;;;9.95;4.75;;;;;;;31.63;100.00;101697.81;5014490;28;20033;-54
2023/06/25 08:38:44;;;;;;;5.60;4.90;;;;;;;32.24;100.00;101775.59;5010858;28;20050;-55
2023/06/25 08:41:09;;;;;;;5.70;5.18;;;;;;;32.33;100.00;101763.69;5011713;28;21588;-55
2023/06/25 08:43:35;;;;;;;5.60;5.10;;;;;;;32.66;100.00;101778.22;5011286;28;20393;-49
2023/06/25 08:46:01;;;;;;;6.78;5.10;;;;;;;32.76;99.21;101755.22;5012555;28;20034;-56
2023/06/25 08:48:29;;;;;;;4.90;4.40;;;;;;;32.37;99.35;101705.09;5010935;28;20052;-53
2023/06/25 08:50:56;;;;;;;6.88;4.47;;;;;;;32.87;100.00;101755.91;5012436;28;20485;-50
2023/06/25 08:53:24;;;;;;;5.78;4.13;;;;;;;32.85;92.49;101726.06;5012797;28;20037;-50
2023/06/25 08:55:51;;;;;;;5.43;4.93;;;;;;;33.27;100.00;101764.03;5011481;28;20445;-49
2023/06/25 08:58:16;;;;;;;6.50;5.90;;;;;;;33.36;89.99;101765.69;5011355;28;20401;-55
2023/06/25 09:00:42;;;;;;;5.55;5.05;;;;;;;33.03;95.61;101720.38;5011066;28;20038;-53
2023/06/25 09:03:07;;;;;;;6.15;5.05;;;;;;;32.96;92.34;101712.03;5011091;28;20026;-51
2023/06/25 09:05:33;;;;;;;8.00;5.45;;;;;;;32.84;94.19;101708.84;5011999;28;20046;-53
2023/06/25 09:07:59;;;;;;;4.90;4.40;;;;;;;33.27;98.47;101764.88;5012513;28;20034;-54
2023/06/25 09:10:24;;;;;;;4.88;4.38;;;;;;;33.49;90.04;101744.13;5012565;28;20110;-53
2023/06/25 09:12:51;;;;;;;5.47;4.50;;;;;;;33.19;93.13;101704.84;5012398;28;20125;-52
2023/06/25 09:15:22;;;;;;;5.00;4.55;;;;;;;33.59;93.26;101761.22;5011682;28;20034;-53
2023/06/25 09:17:48;;;;;;;5.38;4.13;;;;;;;33.57;98.22;101737.81;5011903;28;20168;-49
2023/06/25 09:20:14;;;;;;;6.82;4.65;;;;;;;33.68;87.17;101753.81;5011006;28;20037;-54
2023/06/25 09:22:52;;;;;;;4.70;4.18;;;;;;;33.32;81.35;101685.19;5012860;28;20553;-55
2023/06/25 09:25:18;;;;;;;4.95;3.33;;;;;;;33.69;79.30;101706.38;5011108;28;20552;-57
2023/06/25 09:27:45;;;;;;;5.28;3.55;;;;;;;34.22;84.49;101738.31;5012286;28;20030;-56
2023/06/25 09:30:11;;;;;;;4.30;3.58;;;;;;;34.03;77.05;101695.06;4993657;28;20533;-55
2023/06/25 09:32:56;;;;;;;3.30;3.00;;;;;;;34.35;65.58;101741.31;5011510;28;20030;-51
2023/06/25 09:35:23;;;;;;;3.70;3.40;;;;;;;34.45;79.93;101742.75;5010973;28;20501;-52
2023/06/25 09:37:52;;;;;;;4.00;3.15;;;;;;;34.14;64.79;101706.47;5027202;28;20050;-53
2023/06/25 09:40:21;;;;;;;6.35;3.35;;;;;;;33.85;68.36;101671.63;5015539;28;20057;-54
2023/06/25 09:42:54;;;;;;;3.35;3.05;;;;;;;34.25;84.46;101741.56;5014794;28;20036;-56
2023/06/25 09:45:21;;;;;;;3.17;2.85;;;;;;;34.41;85.03;101737.84;5015736;28;20193;-52
2023/06/25 09:47:47;;;;;;;7.07;3.78;;;;;;;34.36;75.40;101674.66;5013621;28;20038;-58
2023/06/25 09:50:17;;;;;;;4.18;3.47;;;;;;;34.99;65.49;101727.06;5015616;28;20030;-52
2023/06/25 09:52:47;;;;;;;5.30;3.30;;;;;;;35.33;69.12;101722.94;5015764;28;20044;-53
2023/06/25 09:55:13;;;;;;;5.18;3.55;;;;;;;35.39;54.41;101714.81;5015600;28;20113;-57
2023/06/25 09:57:39;;;;;;;3.97;3.60;;;;;;;35.46;64.95;101714.91;5015537;28;20084;-51
2023/06/25 10:00:05;;;;;;;4.68;4.28;;;;;;;35.47;60.48;101709.25;5015417;28;20029;-56
2023/06/25 10:02:30;;;;;;;3.80;3.20;;;;;;;35.50;62.77;101717.06;5015437;28;20034;-53
2023/06/25 10:04:56;;;;;;;3.72;3.40;;;;;;;35.35;61.29;101707.19;5003044;28;20034;-51
2023/06/25 10:07:23;;;;;;;3.33;3.03;;;;;;;35.27;68.47;101688.13;4999987;28;20031;-53
2023/06/25 10:09:55;;;;;;;4.38;3.05;;;;;;;35.28;66.65;101652.34;5012928;28;20026;-53
2023/06/25 10:12:20;;;;;;;3.38;3.03;;;;;;;35.72;65.23;101708.94;5014376;28;20036;-55
2023/06/25 10:14:49;;;;;;;4.63;3.00;;;;;;;35.58;57.60;101666.88;5013929;28;20478;-52
2023/06/25 10:17:15;;;;;;;4.78;3.55;;;;;;;35.73;64.76;101700.53;5009278;28;20034;-60
2023/06/25 10:19:51;;;;;;;4.05;3.65;;;;;;;35.60;60.81;101661.19;5013403;28;20034;-53
2023/06/25 10:22:23;;;;;;;3.30;3.00;;;;;;;35.45;67.06;101648.34;5014711;28;20026;-50
2023/06/25 10:24:51;;;;;;;5.50;4.15;;;;;;;35.96;60.19;101695.72;5013314;28;20091;-52
2023/06/25 10:27:26;;;;;;;3.83;3.25;;;;;;;36.12;73.48;101661.78;5014326;28;20117;-53
2023/06/25 10:29:56;;;;;;;3.80;3.45;;;;;;;36.10;62.50;101650.16;5007803;28;20045;-54
2023/06/25 10:32:23;;;;;;;3.92;3.58;;;;;;;36.02;76.25;101642.06;5013245;28;20041;-54
2023/06/25 10:34:59;;;;;;;3.95;3.42;;;;;;;35.96;63.38;101618.19;5013154;28;20034;-56
2023/06/25 10:37:32;;;;;;;5.07;3.72;;;;;;;36.39;63.15;101624.47;5010694;28;20046;-56
2023/06/25 10:40:08;;;;;;;7.32;3.60;;;;;;;36.44;61.78;101685.88;5013593;28;20084;-51
2023/06/25 10:42:36;;;;;;;4.63;3.60;;;;;;;36.20;68.80;101620.50;5013043;28;20029;-58
2023/06/25 10:45:02;;;;;;;5.47;3.75;;;;;;;36.74;71.83;101672.88;5013201;28;20099;-58
2023/06/25 10:47:28;;;;;;;3.83;3.28;;;;;;;36.69;71.94;101655.31;5013055;28;20401;-54
2023/06/25 10:49:53;;;;;;;4.22;3.63;;;;;;;36.98;68.22;101661.41;5013709;28;20046;-55
2023/06/25 10:52:18;;;;;;;4.78;3.92;;;;;;;37.07;76.75;101659.38;5014740;28;20034;-53
2023/06/25 10:54:44;;;;;;;7.20;4.05;;;;;;;36.91;76.56;101613.88;5014001;28;20366;-55
2023/06/25 10:57:14;;;;;;;4.18;3.78;;;;;;;37.14;68.12;101672.06;5029416;28;20123;-52
2023/06/25 10:59:40;;;;;;;4.30;3.58;;;;;;;37.44;64.40;101653.44;5029245;28;20037;-55
2023/06/25 11:02:20;;;;;;;3.95;3.40;;;;;;;37.39;57.04;101647.66;5013942;28;20520;-53
2023/06/25 11:04:53;;;;;;;6.57;4.20;;;;;;;37.28;72.11;101633.69;5008248;28;20114;-54